Terminal Aerodrome Forecast
Issued by NWS St Louis, MO

Home | Current Version | Previous Version | Text Only | Print | Product List | Glossary On
Versions: 1 2 3 4 5 6 7 8 9 10 11 12 13 14 15 16 17 18 19
370
FTUS43 KLSX 301634 AAD
TAFCOU
TAF AMD
KCOU 301634Z 3017/3112 VRB05KT P6SM VCTS SCT040CB BKN250
     FM301900 VRB05KT P6SM VCTS SCT050CB BKN120
     FM310100 01004KT P6SM SCT050 BKN100=

USA.gov is the U.S. government's official web portal to all federal, state and local government web resources and services.